Time;durP1;ratioP1;P1;durP2;ratioP2;P2;SDS_P1;SDS_P2;PMS_P1;PMS_P2;Temp;Humidity;BMP_temperature;BMP_pressure;BME280_temperature;BME280_humidity;BME280_pressure;Samples;Min_cycle;Max_cycle;Signal;HPM_P1;HPM_P2
2021/12/06 00:02:23;;;;;;;76.75;50.03;;;;;;;1.64;100.00;101086.13;5093348;28;20054;-55
2021/12/06 00:04:49;;;;;;;75.95;50.20;;;;;;;1.68;100.00;101087.25;5092371;28;20024;-54
2021/12/06 00:07:20;;;;;;;76.90;50.65;;;;;;;1.71;100.00;101082.34;5093327;28;20035;-53
2021/12/06 00:09:46;;;;;;;84.32;53.67;;;;;;;1.76;100.00;101077.59;5092919;28;20020;-54
2021/12/06 00:12:14;;;;;;;85.15;54.50;;;;;;;1.78;100.00;101088.75;5092517;28;20024;-54
2021/12/06 00:14:41;;;;;;;77.45;53.15;;;;;;;1.79;100.00;101090.50;5093036;28;20028;-55
2021/12/06 00:17:10;;;;;;;82.95;53.60;;;;;;;1.76;100.00;101095.41;5093110;28;20024;-54
2021/12/06 00:19:36;;;;;;;84.55;54.75;;;;;;;1.79;100.00;101087.97;5092075;28;20031;-54
2021/12/06 00:22:05;;;;;;;88.05;55.10;;;;;;;1.85;100.00;101095.13;5093368;28;20035;-54
2021/12/06 00:24:31;;;;;;;87.50;55.40;;;;;;;1.87;100.00;101099.53;5092695;28;20494;-54
2021/12/06 00:26:56;;;;;;;83.82;54.80;;;;;;;1.87;100.00;101101.19;5092436;28;20378;-54
2021/12/06 00:29:22;;;;;;;83.15;52.83;;;;;;;1.85;100.00;101108.72;5093066;28;20024;-55
2021/12/06 00:31:47;;;;;;;91.07;53.20;;;;;;;1.89;100.00;101112.38;5092756;28;20028;-55
2021/12/06 00:34:16;;;;;;;91.07;55.15;;;;;;;1.93;100.00;101115.22;5092377;28;20028;-55
2021/12/06 00:36:52;;;;;;;92.55;55.10;;;;;;;1.96;100.00;101107.81;5092848;28;20025;-53
2021/12/06 00:39:18;;;;;;;82.85;53.97;;;;;;;1.99;100.00;101109.69;5092388;28;20030;-54
2021/12/06 00:41:44;;;;;;;91.72;55.05;;;;;;;2.02;100.00;101109.00;5092751;28;20188;-54
2021/12/06 00:44:09;;;;;;;82.50;53.38;;;;;;;2.05;100.00;101110.06;5092810;28;20028;-54
2021/12/06 00:46:37;;;;;;;82.88;54.60;;;;;;;2.06;100.00;101124.56;5091630;28;20391;-55
2021/12/06 00:49:04;;;;;;;80.72;52.63;;;;;;;2.05;100.00;101119.38;5096501;28;20063;-55
2021/12/06 00:51:29;;;;;;;77.60;52.22;;;;;;;2.06;100.00;101136.41;5096875;28;20031;-55
2021/12/06 00:53:54;;;;;;;83.18;51.28;;;;;;;2.06;100.00;101129.66;5095968;28;20032;-55
2021/12/06 00:56:20;;;;;;;79.82;52.50;;;;;;;2.09;100.00;101137.50;5096723;28;20137;-55
2021/12/06 00:58:45;;;;;;;77.63;50.47;;;;;;;2.10;100.00;101141.78;5096402;28;20479;-54
2021/12/06 01:01:10;;;;;;;74.25;48.70;;;;;;;2.06;100.00;101159.28;5095681;28;20016;-54
2021/12/06 01:03:39;;;;;;;70.57;46.13;;;;;;;2.01;100.00;101160.63;5096486;28;20103;-54
2021/12/06 01:06:06;;;;;;;71.13;48.67;;;;;;;1.97;100.00;101167.16;5096449;28;20118;-54
2021/12/06 01:08:31;;;;;;;76.50;49.30;;;;;;;1.97;100.00;101173.09;5095941;28;20081;-54
2021/12/06 01:10:58;;;;;;;77.85;50.45;;;;;;;1.97;100.00;101177.31;5096588;28;20028;-54
2021/12/06 01:13:24;;;;;;;76.45;50.17;;;;;;;1.97;100.00;101177.31;5096499;28;20042;-55
2021/12/06 01:15:50;;;;;;;80.63;52.10;;;;;;;1.97;100.00;101173.09;5095520;28;20430;-53
2021/12/06 01:18:17;;;;;;;84.55;52.42;;;;;;;1.97;100.00;101172.22;5096568;28;20024;-54
2021/12/06 01:20:52;;;;;;;87.18;53.78;;;;;;;2.01;100.00;101164.03;5096245;28;20032;-55
2021/12/06 01:23:21;;;;;;;82.63;54.13;;;;;;;2.03;100.00;101161.59;5095704;28;20035;-54
2021/12/06 01:41:17;;;;;;;83.63;51.70;;;;;;;2.07;100.00;101187.34;5096549;28;20039;-54
2021/12/06 01:44:12;;;;;;;80.53;50.13;;;;;;;2.10;100.00;101192.63;5095160;28;20024;-55
2021/12/06 01:46:42;;;;;;;91.25;54.03;;;;;;;2.07;100.00;101191.56;5077774;28;20166;-55
2021/12/06 01:49:08;;;;;;;87.55;51.22;;;;;;;2.06;100.00;101188.13;5095832;28;20459;-54
2021/12/06 01:51:34;;;;;;;83.05;51.88;;;;;;;2.05;100.00;101190.56;5094959;28;20026;-55
2021/12/06 01:54:00;;;;;;;80.47;51.67;;;;;;;2.06;100.00;101192.34;5095561;28;20043;-53
2021/12/06 01:56:26;;;;;;;82.03;51.00;;;;;;;2.06;100.00;101199.97;5094834;28;20020;-53
2021/12/06 01:58:53;;;;;;;87.70;52.58;;;;;;;2.08;100.00;101206.91;5094860;28;20402;-54
2021/12/06 02:01:18;;;;;;;83.38;51.45;;;;;;;2.10;100.00;101204.47;5095235;28;20349;-55
2021/12/06 02:03:43;;;;;;;83.22;50.47;;;;;;;2.09;100.00;101202.69;5094452;28;20074;-55
2021/12/06 02:06:09;;;;;;;77.30;50.33;;;;;;;2.12;100.00;101200.41;5095260;28;20607;-54
2021/12/06 02:08:35;;;;;;;82.45;51.25;;;;;;;2.12;100.00;101202.94;5095236;28;20480;-54
2021/12/06 02:11:02;;;;;;;76.15;50.75;;;;;;;2.10;100.00;101200.25;5094691;28;20032;-54
2021/12/06 02:13:33;;;;;;;73.03;50.53;;;;;;;2.07;100.00;101197.53;5095122;28;20040;-54
2021/12/06 02:15:59;;;;;;;74.63;48.47;;;;;;;2.06;100.00;101199.97;5095241;28;20031;-54
2021/12/06 02:21:23;;;;;;;81.72;51.55;;;;;;;2.08;100.00;101206.00;5095413;28;20040;-55
2021/12/06 02:23:49;;;;;;;78.32;50.13;;;;;;;2.04;100.00;101206.59;5094894;28;20107;-55
2021/12/06 02:26:16;;;;;;;80.07;49.35;;;;;;;2.01;100.00;101214.88;5094958;28;20036;-55
2021/12/06 02:28:43;;;;;;;80.07;52.00;;;;;;;2.02;100.00;101211.56;5094799;28;20055;-54
2021/12/06 02:31:09;;;;;;;84.00;52.08;;;;;;;2.01;100.00;101214.88;5095132;28;20020;-53
2021/12/06 02:33:34;;;;;;;80.20;51.13;;;;;;;2.02;100.00;101220.88;5094173;28;20048;-53
2021/12/06 02:36:00;;;;;;;89.60;54.75;;;;;;;2.05;100.00;101219.41;5094891;28;20480;-55
2021/12/06 02:38:25;;;;;;;83.05;51.60;;;;;;;2.08;100.00;101231.44;5094513;28;20489;-54
2021/12/06 02:40:51;;;;;;;85.18;51.53;;;;;;;2.09;100.00;101223.03;5094577;28;20020;-54
2021/12/06 02:43:16;;;;;;;79.70;51.85;;;;;;;2.10;100.00;101233.31;5094695;28;20032;-54
2021/12/06 02:45:42;;;;;;;78.88;50.08;;;;;;;2.08;100.00;101237.44;5093974;28;20035;-54
2021/12/06 02:48:10;;;;;;;78.40;49.35;;;;;;;2.10;100.00;101246.03;5094951;28;20051;-55
2021/12/06 02:50:48;;;;;;;74.70;48.47;;;;;;;2.12;100.00;101248.72;5094406;28;20035;-54
2021/12/06 02:53:14;;;;;;;72.55;48.92;;;;;;;2.12;100.00;101253.78;5093811;28;20024;-55
2021/12/06 02:55:42;;;;;;;79.03;50.33;;;;;;;2.11;100.00;101252.00;5094232;28;20048;-54
2021/12/06 02:58:16;;;;;;;;;;;;;;;2.25;100.00;101256.41;5094923;28;20387;-54
2021/12/06 03:00:52;;;;;;;74.97;49.13;;;;;;;2.13;100.00;101255.53;5093663;28;19912;-54
2021/12/06 03:03:19;;;;;;;74.95;49.25;;;;;;;2.12;100.00;101256.34;5094478;28;20028;-54
2021/12/06 03:05:45;;;;;;;75.87;49.47;;;;;;;2.11;100.00;101257.97;5094034;28;20388;-54
2021/12/06 03:08:11;;;;;;;84.18;49.53;;;;;;;2.09;100.00;101254.47;5093459;28;20449;-54
2021/12/06 03:10:37;;;;;;;71.57;47.83;;;;;;;2.05;100.00;101251.59;5093513;28;20036;-55
2021/12/06 03:13:03;;;;;;;73.88;49.10;;;;;;;2.03;100.00;101248.03;5093496;28;20035;-54
2021/12/06 03:15:29;;;;;;;76.40;48.80;;;;;;;1.97;100.00;101251.91;5093197;28;20020;-54
2021/12/06 03:17:55;;;;;;;76.57;48.30;;;;;;;1.96;100.00;101249.25;5093934;28;20035;-55
2021/12/06 03:20:21;;;;;;;79.25;48.83;;;;;;;1.95;100.00;101260.19;5093981;28;20058;-54
2021/12/06 03:22:46;;;;;;;81.25;51.83;;;;;;;1.98;100.00;101246.06;5092913;28;20051;-54
2021/12/06 03:25:17;;;;;;;80.35;50.63;;;;;;;1.98;100.00;101256.22;5093590;28;20051;-54
2021/12/06 03:27:42;;;;;;;87.60;51.42;;;;;;;1.97;100.00;101254.44;5092858;28;20413;-54
2021/12/06 03:30:10;;;;;;;84.63;51.95;;;;;;;2.03;100.00;101256.56;5094102;28;20016;-54
2021/12/06 03:32:35;;;;;;;85.38;53.08;;;;;;;2.06;100.00;101255.91;5093459;28;20394;-54
2021/12/06 03:35:01;;;;;;;83.40;51.10;;;;;;;2.05;100.00;101254.13;5093110;28;20594;-55
2021/12/06 03:37:26;;;;;;;82.35;51.92;;;;;;;2.04;100.00;101254.88;5093563;28;20543;-56
2021/12/06 03:39:52;;;;;;;73.90;47.85;;;;;;;1.97;100.00;101264.63;5094013;28;20050;-54
2021/12/06 03:42:20;;;;;;;72.85;46.53;;;;;;;1.92;100.00;101260.00;5093132;28;20028;-55
2021/12/06 03:44:45;;;;;;;82.00;50.03;;;;;;;1.92;100.00;101262.53;5093211;28;20028;-54
2021/12/06 03:47:21;;;;;;;82.50;48.72;;;;;;;1.89;100.00;101263.19;5093763;28;20442;-54
2021/12/06 03:49:46;;;;;;;81.53;50.00;;;;;;;1.90;100.00;101266.63;5092569;28;20020;-54
2021/12/06 03:52:13;;;;;;;80.10;51.75;;;;;;;1.92;100.00;101273.56;5093412;28;20361;-54
2021/12/06 03:54:40;;;;;;;82.97;51.47;;;;;;;1.94;100.00;101266.09;5093402;28;20040;-53
2021/12/06 03:57:06;;;;;;;79.95;49.17;;;;;;;1.93;100.00;101267.72;5092814;28;20364;-54
2021/12/06 03:59:32;;;;;;;82.55;50.15;;;;;;;1.94;100.00;101268.63;5093323;28;20097;-55
2021/12/06 04:01:57;;;;;;;80.45;48.45;;;;;;;1.96;100.00;101262.88;5093460;28;20028;-54
2021/12/06 04:04:23;;;;;;;72.03;47.47;;;;;;;1.90;100.00;101266.63;5092518;28;20492;-53
2021/12/06 04:06:49;;;;;;;75.75;45.10;;;;;;;1.85;100.00;101271.38;5093481;28;20024;-54
2021/12/06 04:09:15;;;;;;;65.63;41.67;;;;;;;1.77;100.00;101270.84;5093227;28;20452;-55
2021/12/06 04:11:41;;;;;;;70.30;44.20;;;;;;;1.73;100.00;101278.13;5092489;28;20069;-54
2021/12/06 04:14:07;;;;;;;75.65;48.05;;;;;;;1.75;100.00;101282.53;5093311;28;20483;-54
2021/12/06 04:16:32;;;;;;;74.05;46.63;;;;;;;1.72;100.00;101279.78;5093081;28;20032;-55
2021/12/06 04:18:58;;;;;;;82.00;49.70;;;;;;;1.79;100.00;101283.66;5092285;28;20118;-54
2021/12/06 04:21:24;;;;;;;81.15;48.30;;;;;;;1.79;100.00;101283.66;5093408;28;20032;-55
2021/12/06 04:23:51;;;;;;;73.85;47.60;;;;;;;1.71;100.00;101284.78;5092524;28;20020;-54
2021/12/06 04:26:17;;;;;;;76.63;49.95;;;;;;;1.67;100.00;101277.69;5092402;28;20043;-55
2021/12/06 04:28:48;;;;;;;76.70;47.50;;;;;;;1.71;100.00;101280.56;5092673;28;20020;-55
2021/12/06 04:31:16;;;;;;;77.68;47.33;;;;;;;1.64;100.00;101276.69;5092155;28;20020;-53
2021/12/06 04:33:42;;;;;;;77.57;49.33;;;;;;;1.65;100.00;101269.94;5092359;28;20115;-52
2021/12/06 04:36:08;;;;;;;79.70;47.75;;;;;;;1.56;100.00;101275.28;5093079;28;20051;-54
2021/12/06 04:38:34;;;;;;;85.57;48.22;;;;;;;1.52;100.00;101285.94;5092012;28;20027;-52
2021/12/06 04:41:00;;;;;;;77.57;47.38;;;;;;;1.53;100.00;101277.56;5092997;28;20107;-54
2021/12/06 04:43:25;;;;;;;75.78;47.78;;;;;;;1.45;100.00;101281.22;5092732;28;20038;-54
2021/12/06 04:45:50;;;;;;;76.95;47.85;;;;;;;1.40;100.00;101283.41;5092095;28;20361;-55
2021/12/06 04:48:16;;;;;;;72.95;45.65;;;;;;;1.31;100.00;101283.59;5092692;28;20063;-54
2021/12/06 04:50:42;;;;;;;66.95;45.53;;;;;;;1.26;100.00;101290.00;5092781;28;20349;-55
2021/12/06 04:53:15;;;;;;;73.18;45.47;;;;;;;1.13;100.00;101288.19;5092186;28;20059;-54
2021/12/06 04:55:47;;;;;;;69.97;44.05;;;;;;;1.07;100.00;101286.84;5092611;28;20533;-54
2021/12/06 04:58:18;;;;;;;72.90;45.63;;;;;;;1.04;100.00;101291.72;5092913;28;20032;-55
2021/12/06 05:00:48;;;;;;;67.30;42.97;;;;;;;1.01;100.00;101296.53;5091750;28;20502;-55
2021/12/06 05:03:15;;;;;;;77.68;48.50;;;;;;;0.98;100.00;101297.19;5093015;28;20047;-54
2021/12/06 05:05:47;;;;;;;64.07;41.83;;;;;;;0.86;100.00;101302.25;5092699;28;20024;-54
2021/12/06 05:08:21;;;;;;;68.70;43.85;;;;;;;0.78;100.00;101299.13;5091923;28;20042;-54
2021/12/06 05:10:47;;;;;;;73.30;45.60;;;;;;;0.68;100.00;101300.84;5092546;28;20067;-53
2021/12/06 05:13:13;;;;;;;70.72;43.65;;;;;;;0.62;100.00;101301.25;5091791;28;20123;-54
2021/12/06 05:15:38;;;;;;;67.65;44.08;;;;;;;0.53;100.00;101309.06;5092471;28;20024;-54
2021/12/06 05:18:05;;;;;;;69.18;45.80;;;;;;;0.46;100.00;101310.19;5092762;28;20031;-54
2021/12/06 05:20:31;;;;;;;79.93;49.47;;;;;;;0.46;100.00;101305.13;5091659;28;20101;-55
2021/12/06 05:22:57;;;;;;;73.15;44.85;;;;;;;0.39;100.00;101307.97;5092559;28;20063;-54
2021/12/06 05:25:25;;;;;;;54.65;37.03;;;;;;;0.14;100.00;101310.22;5092327;28;20040;-54
2021/12/06 05:27:51;;;;;;;;;;;;;;;0.38;100.00;101318.00;5092131;28;20028;-54
2021/12/06 05:30:16;;;;;;;56.65;38.95;;;;;;;0.03;100.00;101324.59;5092805;28;19953;-54
2021/12/06 05:32:43;;;;;;;62.80;42.80;;;;;;;-0.01;100.00;101314.97;5092176;28;20105;-54
2021/12/06 05:35:09;;;;;;;60.88;42.40;;;;;;;-0.06;100.00;101314.59;5093429;28;20032;-54
2021/12/06 05:37:41;;;;;;;81.28;50.95;;;;;;;-0.03;100.00;101309.78;5095789;28;20028;-55
2021/12/06 05:40:11;;;;;;;89.65;53.45;;;;;;;-0.02;100.00;101308.13;5095944;28;20073;-54
2021/12/06 05:42:37;;;;;;;91.28;53.53;;;;;;;-0.04;100.00;101309.66;5094789;28;20035;-54
2021/12/06 05:45:04;;;;;;;90.93;55.45;;;;;;;-0.07;100.00;101310.28;5095983;28;20111;-55
2021/12/06 05:47:29;;;;;;;91.40;51.73;;;;;;;-0.19;100.00;101310.19;5095828;28;20036;-54
2021/12/06 05:49:54;;;;;;;95.97;54.85;;;;;;;-0.15;100.00;101310.47;5095080;28;20286;-53
2021/12/06 05:52:20;;;;;;;102.72;55.63;;;;;;;-0.15;100.00;101308.81;5095608;28;20032;-54
2021/12/06 05:54:45;;;;;;;97.07;56.25;;;;;;;-0.15;100.00;101306.28;5095440;28;20040;-54
2021/12/06 05:57:12;;;;;;;120.13;59.83;;;;;;;-0.19;100.00;101309.31;5094825;28;20024;-54
2021/12/06 05:59:39;;;;;;;113.32;57.13;;;;;;;-0.24;100.00;101316.53;5095589;28;20031;-54
2021/12/06 06:02:06;;;;;;;86.22;51.25;;;;;;;-0.28;100.00;101321.25;5095751;28;20145;-53
2021/12/06 06:04:32;;;;;;;74.20;45.40;;;;;;;-0.37;100.00;101329.00;5094787;28;20070;-54
2021/12/06 06:06:58;;;;;;;81.82;49.55;;;;;;;-0.44;100.00;101320.00;5095488;28;20043;-54
2021/12/06 06:09:23;;;;;;;113.32;56.40;;;;;;;-0.39;100.00;101331.41;5095191;28;20036;-54
2021/12/06 06:11:48;;;;;;;148.27;54.20;;;;;;;-0.52;100.00;101333.69;5094684;28;20036;-55
2021/12/06 06:14:15;;;;;;;132.18;54.30;;;;;;;-0.56;100.00;101345.19;5095534;28;20028;-54
2021/12/06 06:16:48;;;;;;;105.32;34.65;;;;;;;-0.43;100.00;101344.56;5094251;28;20085;-53
2021/12/06 06:19:18;;;;;;;124.90;53.78;;;;;;;-0.54;100.00;101350.41;5095499;28;20032;-55
2021/12/06 06:21:45;;;;;;;138.95;57.13;;;;;;;-0.51;100.00;101350.66;5095145;28;20028;-54
2021/12/06 06:24:10;;;;;;;126.30;36.70;;;;;;;-0.41;100.00;101358.25;5094219;28;20055;-54
2021/12/06 06:26:36;;;;;;;210.35;62.10;;;;;;;-0.42;100.00;101351.41;5094738;28;20399;-56
2021/12/06 06:29:02;;;;;;;154.30;67.78;;;;;;;-0.40;100.00;101351.50;5095237;28;20039;-54
2021/12/06 06:31:27;;;;;;;191.35;63.90;;;;;;;-0.37;100.00;101355.19;5094087;28;20028;-54
2021/12/06 06:33:53;;;;;;;165.18;60.40;;;;;;;-0.31;100.00;101353.91;5094810;28;20042;-52
2021/12/06 06:36:18;;;;;;;192.73;66.57;;;;;;;-0.29;100.00;101353.28;5094770;28;20031;-54
2021/12/06 06:38:43;;;;;;;212.27;67.15;;;;;;;-0.21;100.00;101356.44;5093890;28;20035;-54
2021/12/06 06:41:10;;;;;;;252.35;69.35;;;;;;;-0.18;100.00;101351.63;5095021;28;20035;-54
2021/12/06 06:43:35;;;;;;;250.57;70.70;;;;;;;-0.12;100.00;101353.78;5094459;28;20384;-54
2021/12/06 06:46:04;;;;;;;233.73;69.30;;;;;;;-0.06;100.00;101355.13;5093837;28;20152;-54
2021/12/06 06:48:29;;;;;;;230.88;69.47;;;;;;;-0.01;100.00;101356.41;5094491;28;20031;-58
2021/12/06 06:50:54;;;;;;;303.42;78.78;;;;;;;0.02;100.00;101357.41;5094451;28;20032;-54
2021/12/06 06:53:20;;;;;;;246.27;70.72;;;;;;;0.07;100.00;101356.13;5093624;28;20035;-54
2021/12/06 06:55:45;;;;;;;206.82;69.50;;;;;;;0.10;100.00;101353.84;5094202;28;20095;-54
2021/12/06 06:58:10;;;;;;;245.50;71.20;;;;;;;0.12;100.00;101353.19;5094328;28;20036;-53
2021/12/06 07:00:38;;;;;;;230.43;70.03;;;;;;;0.17;100.00;101351.03;5093553;28;20529;-54
2021/12/06 07:03:05;;;;;;;207.57;72.80;;;;;;;0.22;100.00;101370.03;5094483;28;20451;-54
2021/12/06 07:05:30;;;;;;;154.52;65.57;;;;;;;0.26;100.00;101366.97;5094202;28;20020;-55
2021/12/06 07:07:57;;;;;;;159.73;67.45;;;;;;;0.29;100.00;101366.34;5093277;28;20360;-54
2021/12/06 07:10:25;;;;;;;131.82;66.55;;;;;;;0.36;100.00;101362.63;5094547;28;20035;-54
2021/12/06 07:12:52;;;;;;;152.00;67.93;;;;;;;0.37;100.00;101365.28;5093355;28;20028;-54
2021/12/06 07:15:29;;;;;;;184.73;69.15;;;;;;;0.40;100.00;101364.63;5094341;28;20054;-55
2021/12/06 07:17:55;;;;;;;183.38;67.60;;;;;;;0.40;100.00;101374.78;5094055;28;20024;-55
2021/12/06 07:20:22;;;;;;;181.65;69.43;;;;;;;0.43;100.00;101385.19;5093311;28;20020;-54
2021/12/06 07:22:52;;;;;;;204.02;76.13;;;;;;;0.45;100.00;101381.09;5093721;28;20391;-55
2021/12/06 07:25:20;;;;;;;162.40;68.65;;;;;;;0.47;100.00;101385.53;5093944;28;20128;-53
2021/12/06 07:27:46;;;;;;;202.13;74.03;;;;;;;0.48;100.00;101388.97;5093011;28;20024;-54
2021/12/06 07:30:14;;;;;;;208.63;73.30;;;;;;;0.51;100.00;101386.66;5093857;28;20077;-54
2021/12/06 07:32:40;;;;;;;192.52;75.35;;;;;;;0.54;100.00;101389.41;5093641;28;20387;-54
2021/12/06 07:35:06;;;;;;;168.43;73.65;;;;;;;0.59;100.00;101395.75;5093097;28;20121;-54
2021/12/06 07:37:31;;;;;;;228.63;80.50;;;;;;;0.60;100.00;101396.66;5093715;28;20468;-54
2021/12/06 07:39:57;;;;;;;232.43;75.85;;;;;;;0.61;100.00;101400.97;5093819;28;20027;-53
2021/12/06 07:42:22;;;;;;;199.90;73.57;;;;;;;0.63;100.00;101405.38;5093030;28;20042;-55
2021/12/06 07:44:48;;;;;;;178.80;71.30;;;;;;;0.65;100.00;101402.97;5093391;28;20032;-54
2021/12/06 07:47:14;;;;;;;215.13;73.35;;;;;;;0.61;100.00;101404.38;5093640;28;20027;-54
2021/12/06 07:49:43;;;;;;;232.65;76.63;;;;;;;0.64;100.00;101404.59;5092455;28;20028;-53
2021/12/06 07:52:09;;;;;;;199.27;73.15;;;;;;;0.65;100.00;101393.69;5093636;28;20028;-55
2021/12/06 07:54:34;;;;;;;167.00;68.63;;;;;;;0.64;100.00;101391.91;5092975;28;20036;-55
2021/12/06 07:56:59;;;;;;;183.40;72.97;;;;;;;0.64;100.00;101375.81;5092153;28;20024;-53
2021/12/06 07:59:25;;;;;;;180.18;73.38;;;;;;;0.68;100.00;101382.03;5093000;28;20035;-55
2021/12/06 08:01:51;;;;;;;169.27;74.22;;;;;;;0.71;100.00;101377.19;5093089;28;20467;-55
2021/12/06 08:04:16;;;;;;;166.63;72.57;;;;;;;0.73;100.00;101370.59;5092682;28;20035;-54
2021/12/06 08:06:42;;;;;;;179.35;74.30;;;;;;;0.76;100.00;101365.75;5093107;28;20050;-53
2021/12/06 08:09:08;;;;;;;205.90;75.88;;;;;;;0.76;100.00;101361.56;5092435;28;20047;-54
2021/12/06 08:11:33;;;;;;;168.77;73.38;;;;;;;0.80;100.00;101365.19;5092967;28;20500;-55
2021/12/06 08:13:59;;;;;;;177.82;76.97;;;;;;;0.85;100.00;101368.09;5092978;28;20031;-54
2021/12/06 08:16:31;;;;;;;174.43;78.72;;;;;;;0.86;100.00;101363.13;5092058;28;20036;-54
2021/12/06 08:18:58;;;;;;;176.27;77.93;;;;;;;0.88;100.00;101356.53;5093103;28;20025;-54
2021/12/06 08:21:25;;;;;;;211.05;83.40;;;;;;;0.90;100.00;101365.13;5093012;28;20146;-54
2021/12/06 08:23:52;;;;;;;236.38;88.95;;;;;;;0.95;100.00;101362.97;5092083;28;20110;-53
2021/12/06 08:26:20;;;;;;;232.88;92.15;;;;;;;0.98;100.00;101364.09;5093275;28;20031;-55
2021/12/06 08:28:46;;;;;;;;;;;;;;;1.07;100.00;101363.91;5093041;28;20039;-53
2021/12/06 08:31:13;;;;;;;231.65;88.35;;;;;;;1.06;100.00;101367.22;5092338;28;19912;-55
2021/12/06 08:33:39;;;;;;;238.20;91.85;;;;;;;1.08;100.00;101369.88;5092848;28;20467;-54
2021/12/06 08:36:07;;;;;;;270.40;94.22;;;;;;;1.09;100.00;101377.59;5093137;28;20073;-55
2021/12/06 08:38:33;;;;;;;;;;;;;;;1.17;100.00;101378.19;5092654;28;20029;-54
2021/12/06 08:41:01;;;;;;;284.88;95.45;;;;;;;1.11;100.00;101380.25;5093042;28;20421;-54
2021/12/06 08:43:27;;;;;;;236.40;92.63;;;;;;;1.12;100.00;101394.72;5092717;28;20024;-55
2021/12/06 08:46:02;;;;;;;304.48;97.90;;;;;;;1.12;100.00;101399.78;5091845;28;20027;-50
2021/12/06 08:48:31;;;;;;;302.33;92.10;;;;;;;1.09;100.00;101409.72;5092610;28;20016;-54
2021/12/06 08:50:59;;;;;;;307.83;100.10;;;;;;;1.10;100.00;101403.88;5092906;28;20024;-53
2021/12/06 08:53:24;;;;;;;274.38;94.82;;;;;;;1.11;100.00;101405.63;5091816;28;20081;-51
2021/12/06 08:55:51;;;;;;;257.80;90.65;;;;;;;1.12;100.00;101407.41;5092743;28;20020;-54
2021/12/06 08:58:17;;;;;;;317.02;100.50;;;;;;;1.14;100.00;101400.81;5091839;28;20051;-54
2021/12/06 09:00:43;;;;;;;305.38;98.18;;;;;;;1.12;100.00;101408.31;5092574;28;20414;-54
2021/12/06 09:03:08;;;;;;;328.67;99.47;;;;;;;1.13;100.00;101409.19;5093080;28;20455;-54
2021/12/06 09:05:40;;;;;;;302.15;98.70;;;;;;;1.17;100.00;101411.19;5091698;28;20119;-54
2021/12/06 09:08:06;;;;;;;321.33;102.00;;;;;;;1.19;100.00;101414.75;5092735;28;20028;-55
2021/12/06 09:10:32;;;;;;;284.50;98.32;;;;;;;1.23;100.00;101418.41;5096476;28;20024;-55
2021/12/06 09:12:57;;;;;;;296.70;102.47;;;;;;;1.25;100.00;101414.31;5095301;28;20426;-54
2021/12/06 09:15:24;;;;;;;321.60;108.18;;;;;;;1.27;100.00;101413.66;5096523;28;20123;-53
2021/12/06 09:17:51;;;;;;;297.38;101.15;;;;;;;1.27;100.00;101413.66;5096353;28;20035;-54
2021/12/06 09:20:19;;;;;;;287.20;103.97;;;;;;;1.28;100.00;101410.34;5095553;28;20052;-54
2021/12/06 09:22:47;;;;;;;285.00;102.72;;;;;;;1.29;100.00;101417.22;5095930;28;20024;-52
2021/12/06 09:25:13;;;;;;;277.67;104.28;;;;;;;1.32;100.00;101411.47;5096018;28;20052;-54
2021/12/06 09:27:39;;;;;;;276.42;100.40;;;;;;;1.35;100.00;101409.16;5095140;28;20024;-52
2021/12/06 09:30:07;;;;;;;280.85;101.55;;;;;;;1.38;100.00;101409.41;5096367;28;20383;-51
2021/12/06 09:32:32;;;;;;;312.42;105.40;;;;;;;1.42;100.00;101418.13;5095828;28;20028;-52
2021/12/06 09:34:58;;;;;;;282.35;98.55;;;;;;;1.42;100.00;101418.13;5095348;28;20031;-55
2021/12/06 09:37:25;;;;;;;235.55;90.15;;;;;;;1.42;100.00;101408.88;5095950;28;20020;-54
2021/12/06 09:39:51;;;;;;;232.43;88.65;;;;;;;1.41;100.00;101416.38;5095912;28;20115;-51
2021/12/06 09:42:18;;;;;;;244.57;87.55;;;;;;;1.39;100.00;101408.63;5095371;28;20115;-53
2021/12/06 09:44:44;;;;;;;238.27;89.30;;;;;;;1.41;100.00;101411.31;5095724;28;20051;-52
2021/12/06 09:47:10;;;;;;;255.65;92.88;;;;;;;1.44;100.00;101412.38;5096014;28;20479;-53
2021/12/06 09:49:36;;;;;;;226.05;87.43;;;;;;;1.45;100.00;101409.09;5094652;28;20047;-51
2021/12/06 09:52:05;;;;;;;240.00;88.53;;;;;;;1.44;100.00;101411.53;5095836;28;20020;-50
2021/12/06 09:54:34;;;;;;;210.90;83.00;;;;;;;1.44;100.00;101417.47;5094830;28;20035;-53
2021/12/06 09:57:01;;;;;;;193.18;75.72;;;;;;;1.47;100.00;101421.91;5096112;28;20045;-53
2021/12/06 09:59:28;;;;;;;170.98;69.88;;;;;;;1.45;100.00;101420.91;5095720;28;20413;-52
2021/12/06 10:01:57;;;;;;;169.70;69.38;;;;;;;1.46;100.00;101422.69;5094843;28;20035;-52
2021/12/06 10:04:25;;;;;;;176.38;70.80;;;;;;;1.44;100.00;101424.22;5095647;28;20032;-51
2021/12/06 10:06:52;;;;;;;176.73;70.35;;;;;;;1.45;100.00;101415.84;5095537;28;20028;-52
2021/12/06 10:09:18;;;;;;;175.95;70.95;;;;;;;1.48;100.00;101413.50;5094742;28;20030;-51
2021/12/06 10:11:45;;;;;;;182.82;70.60;;;;;;;1.50;100.00;101406.91;5095276;28;20028;-51
2021/12/06 10:14:11;;;;;;;177.77;69.20;;;;;;;1.52;100.00;101395.19;5095486;28;20035;-52
2021/12/06 10:16:37;;;;;;;181.73;73.28;;;;;;;1.55;100.00;101405.59;5094299;28;20028;-53
2021/12/06 10:19:05;;;;;;;171.30;67.22;;;;;;;1.54;100.00;101397.88;5095186;28;20024;-52
2021/12/06 10:21:32;;;;;;;187.75;70.15;;;;;;;1.54;100.00;101382.63;5094315;28;20471;-53
2021/12/06 10:23:58;;;;;;;189.45;69.07;;;;;;;1.55;100.00;101382.72;5093988;28;20445;-53
2021/12/06 10:26:27;;;;;;;188.00;71.10;;;;;;;1.56;100.00;101376.88;5094991;28;20059;-52
2021/12/06 10:29:00;;;;;;;216.75;77.28;;;;;;;1.57;100.00;101371.00;5094940;28;20024;-53
2021/12/06 10:31:26;;;;;;;220.13;76.47;;;;;;;1.61;100.00;101367.03;5094088;28;20027;-51
2021/12/06 10:33:54;;;;;;;214.82;76.70;;;;;;;1.62;100.00;101369.69;5094708;28;20124;-53
2021/12/06 10:36:19;;;;;;;;;;;;;;;1.71;100.00;101373.72;5095152;28;20036;-54
2021/12/06 10:38:53;;;;;;;184.75;67.30;;;;;;;1.59;100.00;101376.22;5093899;28;19965;-51
2021/12/06 10:41:21;;;;;;;199.63;65.70;;;;;;;1.59;100.00;101379.63;5094960;28;20023;-53
2021/12/06 10:44:03;;;;;;;226.65;73.55;;;;;;;1.61;100.00;101379.75;5075778;28;20062;-52
2021/12/06 10:46:30;;;;;;;228.82;69.22;;;;;;;1.61;100.00;101370.50;5094498;28;20126;-53
2021/12/06 10:49:01;;;;;;;201.03;64.93;;;;;;;1.61;100.00;101362.88;5095172;28;20027;-52
2021/12/06 10:51:31;;;;;;;193.63;63.75;;;;;;;1.58;100.00;101349.03;5093906;28;20317;-54
2021/12/06 10:54:03;;;;;;;170.35;57.28;;;;;;;1.54;100.00;101339.44;5094530;28;20032;-52
2021/12/06 10:56:39;;;;;;;165.18;56.95;;;;;;;1.54;100.00;101337.78;5094400;28;20043;-53
2021/12/06 10:59:10;;;;;;;152.90;57.08;;;;;;;1.51;100.00;101326.50;5093818;28;20468;-53
2021/12/06 11:01:35;;;;;;;156.95;58.42;;;;;;;1.48;100.00;101317.88;5094355;28;20024;-54
2021/12/06 11:04:06;;;;;;;167.18;56.63;;;;;;;1.48;100.00;101311.91;5094413;28;20471;-53
2021/12/06 11:06:36;;;;;;;155.07;56.40;;;;;;;1.49;100.00;101308.59;5093335;28;20059;-54
2021/12/06 11:09:05;;;;;;;146.40;55.55;;;;;;;1.50;100.00;101305.28;5094272;28;20032;-54
2021/12/06 11:11:37;;;;;;;137.27;54.95;;;;;;;1.51;100.00;101312.16;5094095;28;20031;-54
2021/12/06 11:14:25;;;;;;;138.82;54.35;;;;;;;1.54;100.00;101312.38;5093634;28;20036;-55
2021/12/06 11:17:01;;;;;;;126.38;53.42;;;;;;;1.54;100.00;101307.28;5094183;28;20077;-55
2021/12/06 11:19:29;;;;;;;111.60;49.20;;;;;;;1.54;100.00;101298.78;5092950;28;20498;-56
2021/12/06 11:22:00;;;;;;;113.45;50.13;;;;;;;1.56;100.00;101299.78;5093876;28;20375;-56
2021/12/06 11:24:39;;;;;;;94.38;45.75;;;;;;;1.55;100.00;101293.81;5093727;28;20051;-55
2021/12/06 11:27:06;;;;;;;78.10;41.63;;;;;;;1.52;100.00;101287.63;5093384;28;20035;-55